SV6NOB-2 Loannina GR current weather conditions

sailwx.info

Wind from 315

Air temperature 20.0° C
Dewpoint -15.3° C

Last reported at 2020-Aug-12 23:04 UTC.
Time now 2020-Aug-12 23:42 UTC

Location: N 39°40' E 020°51'.
View on Google Maps.

See reports from other nearby stations

  
Tides and Currents Weather Stations Pressure Air Temp Water Temp Dewpoint Dewpoint Depression Visibility Wind Speed Wind Dir Waves Ship Positions
date/time (UTC)wind fromknots sea level pressurealtimeterstation pressurevisibilityair tempwater tempwave heightnotes
2020-Aug-12 23:04 315 20.0
2020-Aug-12 22:55 045 2 gusting 2 20.0
2020-Aug-12 22:46 20.0
2020-Aug-12 22:38 20.0
2020-Aug-12 22:28 022 20.0
2020-Aug-12 22:19 20.0
2020-Aug-12 22:10 20.0
2020-Aug-12 22:00 022 2 gusting 2 20.0
2020-Aug-12 21:51 20.6
2020-Aug-12 21:43 045 2 gusting 2 21.1
2020-Aug-12 21:35 045 2 gusting 2 21.1
2020-Aug-12 21:26 180 1 gusting 2 21.1
2020-Aug-12 21:17 135 21.1
2020-Aug-12 21:07 21.1
2020-Aug-12 20:59 180 21.1
2020-Aug-12 20:50 180 0 gusting 1 21.1
2020-Aug-12 20:42 225 21.1
2020-Aug-12 20:34 180 2 gusting 2 21.7
2020-Aug-12 20:24 045 21.7
2020-Aug-12 20:15 090 0 gusting 2 21.7
2020-Aug-12 20:06 21.7
2020-Aug-12 19:58 180 21.7
2020-Aug-12 19:49 180 1 gusting 1 21.7
2020-Aug-12 19:40 045 0 gusting 1 21.7
2020-Aug-12 19:31 045 21.7
2020-Aug-12 19:22 090 1 gusting 2 21.7
2020-Aug-12 19:12 090 1 gusting 2 21.7
2020-Aug-12 19:03 180 21.7
2020-Aug-12 18:54 21.7
2020-Aug-12 18:46 21.7
2020-Aug-12 18:37 090 1 gusting 2 21.7
2020-Aug-12 18:29 180 21.7
2020-Aug-12 18:19 270 21.7
2020-Aug-12 18:11 21.7
2020-Aug-12 18:03 225 2 gusting 2 21.7
2020-Aug-12 17:54 180 21.7
2020-Aug-12 17:45 225 2 gusting 2 21.7
2020-Aug-12 17:36 225 2 gusting 3 21.7
2020-Aug-12 17:27 180 1 gusting 2 21.7
2020-Aug-12 17:18 135 1 gusting 2 21.7
2020-Aug-12 17:08 225 1 gusting 2 21.7
2020-Aug-12 17:00 225 1 gusting 2 21.7
2020-Aug-12 16:51 135 0 gusting 1 21.7
2020-Aug-12 16:42 21.1
2020-Aug-12 16:34 20.6
2020-Aug-12 16:24 315 3 gusting 5 19.4
2020-Aug-12 16:16 25.0
2020-Aug-12 16:07 25.0
2020-Aug-12 15:58 25.0
2020-Aug-12 15:48 090 18 gusting 26 26.7
2020-Aug-12 15:39 045 10 gusting 16 26.7
2020-Aug-12 15:29 26.1
2020-Aug-12 15:20 135 10 gusting 13 26.1
2020-Aug-12 15:11 135 15 gusting 20 30.0
2020-Aug-12 15:03 135 4 gusting 6 32.8
2020-Aug-12 14:54 180 5 gusting 6 32.8
2020-Aug-12 14:46 090 5 gusting 6 34.4
2020-Aug-12 14:37 180 4 gusting 5 33.3
2020-Aug-12 14:27 225 6 gusting 10 33.3
2020-Aug-12 14:19 315 1 gusting 2 33.9
2020-Aug-12 14:10 247 1 gusting 2 33.9
2020-Aug-12 14:00 315 2 gusting 4 32.8
2020-Aug-12 13:52 33.3
2020-Aug-12 13:44 33.9
2020-Aug-12 13:34 315 6 gusting 8 33.3
2020-Aug-12 13:24 315 6 gusting 8 32.8
2020-Aug-12 13:14 315 7 gusting 10 33.3
2020-Aug-12 13:05 34.4
2020-Aug-12 12:56 180 2 gusting 3 33.9
2020-Aug-12 12:46 315 2 gusting 4 33.3
2020-Aug-12 12:37 32.2
2020-Aug-12 12:29 315 5 gusting 6 32.8
2020-Aug-12 12:19 32.2
2020-Aug-12 12:10 022 4 gusting 5 33.3
2020-Aug-12 12:01 315 5 gusting 6 31.7
2020-Aug-12 11:52 32.2
2020-Aug-12 11:43 32.8
2020-Aug-12 11:35 32.8
2020-Aug-12 11:26 31.7
2020-Aug-12 11:18 31.7
2020-Aug-12 11:10 045 6 gusting 6 31.1
2020-Aug-12 11:01 045 5 gusting 5 30.6
2020-Aug-12 10:52 30.6
2020-Aug-12 10:43 045 3 gusting 5 30.0
2020-Aug-12 10:33 045 5 gusting 6 30.0
2020-Aug-12 10:24 045 5 gusting 6 30.0
2020-Aug-12 10:15 315 5 gusting 6 30.0
2020-Aug-12 10:07 315 5 gusting 6 29.4
2020-Aug-12 09:57 29.4
2020-Aug-12 09:48 045 3 gusting 5 29.4
2020-Aug-12 09:38 28.9
2020-Aug-12 09:29 28.9
2020-Aug-12 09:19 27.8
2020-Aug-12 09:10 27.8
2020-Aug-12 09:01 090 2 gusting 2 27.8
2020-Aug-12 08:53 270 27.2
2020-Aug-12 08:45 045 2 gusting 4 27.2
2020-Aug-12 08:36 26.7
2020-Aug-12 08:27 090 2 gusting 3 26.1
2020-Aug-12 08:18 045 2 gusting 2 25.6
2020-Aug-12 08:09 090 2 gusting 2 25.0
2020-Aug-12 08:00 25.0
2020-Aug-12 07:50 045 3 gusting 4 25.0
2020-Aug-12 07:42 24.4
2020-Aug-12 07:33 090 24.4
2020-Aug-12 07:23 045 2 gusting 5 23.9
2020-Aug-12 07:14 045 2 gusting 2 25.0
2020-Aug-12 07:05 225 0 gusting 2 23.9
2020-Aug-12 06:57 090 0 gusting 1 23.3
2020-Aug-12 06:48 202 1 gusting 2 22.8
2020-Aug-12 06:38 090 2 gusting 2 22.8
2020-Aug-12 06:30 22.8
2020-Aug-12 06:21 22.8
2020-Aug-12 06:13 23.3
2020-Aug-12 06:04 045 1 gusting 2 22.2
2020-Aug-12 05:56 045 2 gusting 3 21.7
2020-Aug-12 05:48 21.1
2020-Aug-12 05:40 045 2 gusting 2 20.6
2020-Aug-12 05:32 045 2 gusting 2 20.0
2020-Aug-12 05:24 045 2 gusting 4 20.0
2020-Aug-12 05:14 19.4
2020-Aug-12 05:05 19.4
2020-Aug-12 04:57 19.4
2020-Aug-12 04:47 18.9
2020-Aug-12 04:39 315 2 gusting 2 18.9
2020-Aug-12 04:29 18.9
2020-Aug-12 04:20 045 17.8
2020-Aug-12 04:11 045 17.8
2020-Aug-12 04:01 045 1 gusting 2 17.8
2020-Aug-12 03:51 17.8
2020-Aug-12 03:43 17.8
2020-Aug-12 03:35 17.8
2020-Aug-12 03:25 022 1 gusting 2 17.8
2020-Aug-12 03:17 315 0 gusting 1 17.8
2020-Aug-12 03:09 022 1 gusting 1 17.8
2020-Aug-12 02:59 17.8
2020-Aug-12 02:49 18.3
2020-Aug-12 02:40 180 18.3
2020-Aug-12 02:31 18.3
2020-Aug-12 02:22 180 1 gusting 2 18.3
2020-Aug-12 02:13 18.3
2020-Aug-12 02:03 18.3
2020-Aug-12 01:54 045 18.3
2020-Aug-12 01:46 045 0 gusting 1 18.3
2020-Aug-12 01:37 337 2 gusting 2 18.3
2020-Aug-12 01:28 315 1 gusting 2 18.3
2020-Aug-12 01:19 18.9
2020-Aug-12 01:09 18.3
2020-Aug-12 01:00 18.3
2020-Aug-12 00:51 18.3
2020-Aug-12 00:42 045 18.9
2020-Aug-12 00:33 18.3
2020-Aug-12 00:24 315 2 gusting 3 18.9
2020-Aug-12 00:14 18.9
2020-Aug-12 00:06 315 1 gusting 1 19.4
2020-Aug-11 23:57 19.4
2020-Aug-11 23:48 19.4
2020-Aug-11 23:40 19.4
2020-Aug-11 23:31 045 0 gusting 1 19.4
2020-Aug-11 23:21 045 0 gusting 1 19.4
2020-Aug-11 23:13 19.4
2020-Aug-11 23:03 045 1 gusting 2 19.4
2020-Aug-11 22:54 19.4
2020-Aug-11 22:46 20.0
2020-Aug-11 22:37 20.0
2020-Aug-11 22:28 20.6
2020-Aug-11 22:20 180 1 gusting 2 20.6
2020-Aug-11 22:11 225 1 gusting 2 21.1
2020-Aug-11 22:01 180 1 gusting 2 21.1
2020-Aug-11 21:53 135 1 gusting 2 21.1
2020-Aug-11 21:44 180 2 gusting 2 21.1
2020-Aug-11 21:35 180 1 gusting 2 21.1
2020-Aug-11 21:26 135 1 gusting 2 21.1
2020-Aug-11 21:18 135 2 gusting 4 21.1
2020-Aug-11 21:09 180 0 gusting 2 21.7
2020-Aug-11 20:59 180 2 gusting 2 21.7
2020-Aug-11 20:51 090 1 gusting 2 21.7
2020-Aug-11 20:42 135 1 gusting 2 21.7
2020-Aug-11 20:33 180 0 gusting 1 21.7
2020-Aug-11 20:24 180 0 gusting 1 21.7
2020-Aug-11 20:15 270 22.2
2020-Aug-11 20:07 180 0 gusting 2 22.2
2020-Aug-11 19:58 180 2 gusting 4 22.2
2020-Aug-11 19:48 225 1 gusting 2 22.2
2020-Aug-11 19:40 135 22.8
2020-Aug-11 19:30 270 22.8
2020-Aug-11 19:21 22.8
2020-Aug-11 19:13 225 22.8
2020-Aug-11 19:04 045 22.8
2020-Aug-11 18:55 315 0 gusting 2 22.8
2020-Aug-11 18:45 337 0 gusting 1 23.3
2020-Aug-11 18:36 23.9
2020-Aug-11 18:27 225 0 gusting 1 23.9
2020-Aug-11 18:18 180 2 gusting 2 23.9
2020-Aug-11 18:08 045 1 gusting 2 23.9
2020-Aug-11 17:59 225 1 gusting 2 23.9
2020-Aug-11 17:50 180 2 gusting 3 23.9
2020-Aug-11 17:41 180 1 gusting 2 24.4
2020-Aug-11 17:32 180 0 gusting 1 24.4
2020-Aug-11 17:24 180 0 gusting 1 24.4
2020-Aug-11 17:15 180 1 gusting 2 24.4
2020-Aug-11 17:05 090 1 gusting 2 25.0
2020-Aug-11 16:56 045 1 gusting 3 25.0
2020-Aug-11 16:46 090 2 gusting 2 25.0
2020-Aug-11 16:38 25.6
2020-Aug-11 16:30 090 1 gusting 2 25.0
2020-Aug-11 16:22 180 2 gusting 2 25.6
2020-Aug-11 16:13 25.0
2020-Aug-11 16:03 315 2 gusting 3 25.6
2020-Aug-11 15:54 25.0
2020-Aug-11 15:45 25.0
2020-Aug-11 15:36 337 0 gusting 1 25.6
2020-Aug-11 15:27 045 3 gusting 6 26.1
2020-Aug-11 15:19 225 1 gusting 2 25.6
2020-Aug-11 15:10 090 5 gusting 6 25.6
2020-Aug-11 15:02 225 4 gusting 5 26.1
2020-Aug-11 14:53 225 6 gusting 7 26.1
2020-Aug-11 14:45 180 6 gusting 7 26.1
2020-Aug-11 14:36 180 6 gusting 7 27.2
2020-Aug-11 14:26 225 5 gusting 5 28.3
2020-Aug-11 14:17 30.0
2020-Aug-11 14:08 045 1 gusting 2 29.4
2020-Aug-11 14:00 28.3
2020-Aug-11 13:50 090 4 gusting 5 27.8
2020-Aug-11 13:41 26.7
2020-Aug-11 13:33 337 6 gusting 10 26.7
2020-Aug-11 13:23 26.7
2020-Aug-11 13:14 315 12 gusting 14 28.9
2020-Aug-11 13:04 32.8
2020-Aug-11 12:55 315 0 gusting 1 32.2
2020-Aug-11 12:45 315 2 gusting 5 32.8
2020-Aug-11 12:36 337 5 gusting 6 32.2
2020-Aug-11 12:27 31.7
2020-Aug-11 12:18 32.8
2020-Aug-11 12:08 022 5 gusting 8 31.7
2020-Aug-11 11:58 022 5 gusting 6 31.7
2020-Aug-11 11:48 32.2
2020-Aug-11 11:40 090 2 gusting 2 33.3
2020-Aug-11 11:31 270 32.8
2020-Aug-11 11:22 180 3 gusting 5 31.7
2020-Aug-11 11:13 31.1
2020-Aug-11 11:04 045 3 gusting 5 30.6
2020-Aug-11 10:54 315 4 gusting 5 30.6
2020-Aug-11 10:46 090 0 gusting 1 31.1
2020-Aug-11 10:37 045 1 gusting 2 31.1
2020-Aug-11 10:28 022 1 gusting 2 30.6
2020-Aug-11 10:18 045 3 gusting 4 30.0
2020-Aug-11 10:10 090 2 gusting 3 30.0
2020-Aug-11 10:01 315 0 gusting 2 30.0
2020-Aug-11 09:52 045 1 gusting 2 28.9
2020-Aug-11 09:43 28.9
2020-Aug-11 09:34 045 2 gusting 4 28.9
2020-Aug-11 09:24 090 0 gusting 1 29.4
2020-Aug-11 09:16 180 1 gusting 2 29.4
2020-Aug-11 09:08 28.3
2020-Aug-11 08:59 135 2 gusting 3 27.8
2020-Aug-11 08:50 090 1 gusting 2 27.8
2020-Aug-11 08:42 045 2 gusting 2 26.7
2020-Aug-11 08:33 26.7
2020-Aug-11 08:24 090 2 gusting 2 26.7
2020-Aug-11 08:15 26.1
2020-Aug-11 08:07 25.6
2020-Aug-11 07:58 25.6
2020-Aug-11 07:49 315 1 gusting 2 25.0
2020-Aug-11 07:39 045 0 gusting 1 25.6
2020-Aug-11 07:30 25.6
2020-Aug-11 07:20 26.1
2020-Aug-11 07:11 090 1 gusting 2 25.6
2020-Aug-11 07:03 045 1 gusting 2 24.4
2020-Aug-11 06:54 23.9
2020-Aug-11 06:45 090 2 gusting 2 23.9
2020-Aug-11 06:36 23.9
2020-Aug-11 06:26 045 2 gusting 2 23.9
2020-Aug-11 06:16 090 22.8
2020-Aug-11 06:08 045 0 gusting 1 22.8
2020-Aug-11 05:59 22.2
2020-Aug-11 05:49 090 0 gusting 1 22.2
2020-Aug-11 05:40 045 0 gusting 1 21.7
2020-Aug-11 05:30 045 1 gusting 2 21.7
2020-Aug-11 05:21 022 1 gusting 2 21.1
2020-Aug-11 05:11 045 0 gusting 1 21.1
2020-Aug-11 05:03 21.1
2020-Aug-11 04:53 20.0
2020-Aug-11 04:44 045 0 gusting 1 19.4
2020-Aug-11 04:35 315 1 gusting 2 19.4
2020-Aug-11 04:26 315 2 gusting 2 18.9
2020-Aug-11 04:17 18.3
2020-Aug-11 04:07 18.3
2020-Aug-11 03:57 045 0 gusting 1 18.3
2020-Aug-11 03:49 022 18.3
2020-Aug-11 03:40 022 0 gusting 1 18.3
2020-Aug-11 03:31 18.3
2020-Aug-11 03:22 18.3
2020-Aug-11 03:13 18.3
2020-Aug-11 03:04 045 1 gusting 2 18.9
2020-Aug-11 02:54 045 18.3
2020-Aug-11 02:45 045 0 gusting 1 18.3
2020-Aug-11 02:35 18.3
2020-Aug-11 02:27 045 18.3
2020-Aug-11 02:19 18.3
2020-Aug-11 02:09 18.3
2020-Aug-11 01:59 18.3
2020-Aug-11 01:49 18.9
2020-Aug-11 01:40 18.9
2020-Aug-11 01:30 19.4
2020-Aug-11 01:20 19.4
2020-Aug-11 01:11 19.4
2020-Aug-11 01:03 180 0 gusting 1 19.4
2020-Aug-11 00:55 180 0 gusting 1 20.0
2020-Aug-11 00:45 180 0 gusting 2 20.0
2020-Aug-11 00:35 180 0 gusting 1 20.0
2020-Aug-11 00:26 202 1 gusting 2 20.0
2020-Aug-11 00:18 180 0 gusting 1 20.0
2020-Aug-11 00:09 180 2 gusting 2 20.0
2020-Aug-11 00:00 180 1 gusting 2 20.0
2020-Aug-10 23:52 180 1 gusting 2 20.0
2020-Aug-10 23:43 20.0
2020-Aug-10 23:34 20.6
2020-Aug-10 23:24 180 20.6
2020-Aug-10 23:15 180 20.6
2020-Aug-10 23:05 180 2 gusting 2 21.1